createdAt,value
2019-05-11T00:02:15.265Z,10.23
2019-05-11T00:04:41.847Z,8.53
2019-05-11T00:07:08.357Z,8.60
2019-05-11T00:09:34.943Z,9.50
2019-05-11T00:12:01.551Z,8.80
2019-05-11T00:14:28.038Z,8.63
2019-05-11T00:16:54.549Z,8.23
2019-05-11T00:19:20.972Z,7.27
2019-05-11T00:21:47.562Z,8.73
2019-05-11T00:24:14.052Z,7.97
2019-05-11T00:26:40.546Z,8.23
2019-05-11T00:29:07.035Z,8.03
2019-05-11T00:31:33.507Z,7.87
2019-05-11T00:34:00.103Z,8.13
2019-05-11T00:36:26.492Z,8.33
2019-05-11T00:38:53.114Z,8.03
2019-05-11T00:41:19.540Z,8.40
2019-05-11T00:43:46.064Z,7.73
2019-05-11T00:46:12.642Z,7.57
2019-05-11T00:48:39.255Z,9.70
2019-05-11T00:51:05.648Z,9.27
2019-05-11T00:53:32.447Z,8.30
2019-05-11T00:55:58.932Z,8.30
2019-05-11T00:58:25.442Z,7.57
2019-05-11T01:00:51.829Z,8.53
2019-05-11T01:03:18.267Z,9.30
2019-05-11T01:05:44.783Z,8.23
2019-05-11T01:08:11.360Z,10.33
2019-05-11T01:10:42.011Z,8.73
2019-05-11T01:13:06.139Z,11.27
2019-05-11T01:15:32.630Z,9.13
2019-05-11T01:17:59.239Z,9.23
2019-05-11T01:20:25.723Z,11.10
2019-05-11T01:22:52.322Z,10.90
2019-05-11T01:25:18.743Z,9.90
2019-05-11T01:27:45.259Z,13.60
2019-05-11T01:30:11.845Z,10.20
2019-05-11T01:32:38.402Z,14.67
2019-05-11T01:35:05.480Z,8.53
2019-05-11T01:37:32.048Z,8.60
2019-05-11T01:39:58.635Z,10.60
2019-05-11T01:42:25.562Z,10.27
2019-05-11T01:44:52.166Z,9.50
2019-05-11T01:47:18.674Z,8.10
2019-05-11T01:49:45.163Z,9.70
2019-05-11T01:52:11.628Z,8.70
2019-05-11T01:54:38.071Z,9.23
2019-05-11T01:57:04.467Z,8.70
2019-05-11T01:59:31.002Z,8.37
2019-05-11T02:01:57.431Z,9.03
2019-05-11T02:04:23.899Z,9.37
2019-05-11T02:06:50.399Z,10.73
2019-05-11T02:09:16.770Z,8.60
2019-05-11T02:11:43.125Z,10.60
2019-05-11T02:14:09.595Z,8.77
2019-05-11T02:16:36.147Z,11.10
2019-05-11T02:19:02.711Z,8.67
2019-05-11T02:21:29.059Z,9.67
2019-05-11T02:23:55.635Z,10.20
2019-05-11T02:26:22.011Z,8.63
2019-05-11T02:28:48.480Z,8.03
2019-05-11T02:31:14.947Z,8.63
2019-05-11T02:33:41.545Z,9.10
2019-05-11T02:36:07.900Z,8.53
2019-05-11T02:38:34.357Z,10.73
2019-05-11T02:41:01.108Z,10.17
2019-05-11T02:43:27.575Z,10.00
2019-05-11T02:45:54.024Z,9.43
2019-05-11T02:48:20.597Z,9.20
2019-05-11T02:50:47.163Z,10.63
2019-05-11T02:53:13.935Z,12.50
2019-05-11T02:55:40.398Z,9.13
2019-05-11T02:58:07.050Z,9.70
2019-05-11T03:00:35.297Z,12.47
2019-05-11T03:03:01.770Z,9.93
2019-05-11T03:05:28.463Z,9.57
2019-05-11T03:07:54.859Z,9.20
2019-05-11T03:10:21.237Z,10.77
2019-05-11T03:12:47.787Z,11.03
2019-05-11T03:15:14.152Z,10.73
2019-05-11T03:17:40.502Z,10.17
2019-05-11T03:20:07.289Z,12.37
2019-05-11T03:22:33.635Z,9.47
2019-05-11T03:25:00.205Z,10.63
2019-05-11T03:27:26.556Z,12.47
2019-05-11T03:29:53.039Z,10.63
2019-05-11T03:32:19.519Z,10.47
2019-05-11T03:34:46.092Z,11.90
2019-05-11T03:37:13.358Z,10.57
2019-05-11T03:39:39.732Z,10.47
2019-05-11T03:42:14.553Z,11.80
2019-05-11T03:44:34.564Z,9.77
2019-05-11T03:47:02.913Z,13.73
2019-05-11T03:49:29.306Z,10.67
2019-05-11T03:51:55.753Z,11.30
2019-05-11T03:54:22.147Z,13.13
2019-05-11T03:56:48.487Z,12.07
2019-05-11T03:59:14.856Z,11.93
2019-05-11T04:01:41.416Z,10.63
2019-05-11T04:04:07.806Z,10.90
2019-05-11T04:06:34.272Z,12.30
2019-05-11T04:09:00.652Z,13.10
2019-05-11T04:11:27.005Z,11.03
2019-05-11T04:13:53.474Z,11.80
2019-05-11T04:16:19.920Z,11.40
2019-05-11T04:18:46.398Z,10.70
2019-05-11T04:21:12.737Z,10.90
2019-05-11T04:23:39.189Z,11.30
2019-05-11T04:26:05.563Z,12.00
2019-05-11T04:28:32.008Z,12.27
2019-05-11T04:30:58.513Z,11.53
2019-05-11T04:33:25.059Z,10.10
2019-05-11T04:35:51.433Z,10.47
2019-05-11T04:38:17.781Z,12.73
2019-05-11T04:40:44.356Z,13.70
2019-05-11T04:43:10.699Z,10.57
2019-05-11T04:45:37.277Z,14.33
2019-05-11T04:48:03.731Z,13.20
2019-05-11T04:50:30.318Z,11.67
2019-05-11T04:52:56.668Z,12.33
2019-05-11T04:55:23.051Z,10.10
2019-05-11T04:57:49.603Z,11.50
2019-05-11T05:00:16.267Z,13.90
2019-05-11T05:02:42.828Z,9.57
2019-05-11T05:05:09.291Z,11.33
2019-05-11T05:07:35.745Z,10.30
2019-05-11T05:10:02.532Z,9.87
2019-05-11T05:12:29.088Z,12.20
2019-05-11T05:14:55.462Z,8.83
2019-05-11T05:17:21.856Z,9.70
2019-05-11T05:19:48.213Z,9.57
2019-05-11T05:22:14.573Z,9.57
2019-05-11T05:24:41.039Z,11.77
2019-05-11T05:27:07.619Z,10.63
2019-05-11T05:29:34.089Z,9.40
2019-05-11T05:32:00.590Z,9.40
2019-05-11T05:34:26.959Z,9.23
2019-05-11T05:36:53.515Z,9.57
2019-05-11T05:39:19.886Z,9.00
2019-05-11T05:41:56.670Z,10.57
2019-05-11T05:44:14.619Z,8.27
2019-05-11T05:46:42.298Z,8.80
2019-05-11T05:49:08.651Z,6.27
2019-05-11T05:51:35.020Z,7.70
2019-05-11T05:54:01.467Z,7.13
2019-05-11T05:56:27.939Z,7.33
2019-05-11T05:58:54.400Z,9.00
2019-05-11T06:01:20.809Z,6.97
2019-05-11T06:03:47.158Z,6.20
2019-05-11T06:06:13.642Z,6.30
2019-05-11T06:08:43.114Z,6.87
2019-05-11T06:11:08.565Z,5.60
2019-05-11T06:13:45.245Z,6.47
2019-05-11T06:16:03.620Z,5.57
2019-05-11T06:18:30.072Z,6.97
2019-05-11T06:20:56.555Z,6.67
2019-05-11T06:23:22.931Z,7.47
2019-05-11T06:25:49.496Z,5.43
2019-05-11T06:28:15.880Z,4.43
2019-05-11T06:30:42.380Z,4.73
2019-05-11T06:33:08.835Z,4.33
2019-05-11T06:35:35.201Z,4.70
2019-05-11T06:38:01.747Z,5.70
2019-05-11T06:40:28.781Z,4.43
2019-05-11T06:42:55.986Z,4.17
2019-05-11T06:45:22.367Z,4.23
2019-05-11T06:47:48.882Z,4.63
2019-05-11T06:50:15.843Z,5.27
2019-05-11T06:52:42.293Z,6.07
2019-05-11T06:55:09.363Z,5.20
2019-05-11T06:57:35.843Z,5.93
2019-05-11T07:00:03.108Z,3.63
2019-05-11T07:02:29.556Z,4.63
2019-05-11T07:04:56.000Z,3.70
2019-05-11T07:07:22.471Z,3.97
2019-05-11T07:09:48.916Z,8.10
2019-05-11T07:12:15.411Z,4.60
2019-05-11T07:14:42.343Z,3.20
2019-05-11T07:17:08.911Z,3.30
2019-05-11T07:19:35.259Z,4.83
2019-05-11T07:22:01.628Z,5.92
2019-05-11T07:24:28.223Z,2.90
2019-05-11T07:26:54.647Z,2.75
2019-05-11T07:29:20.992Z,3.87
2019-05-11T07:31:47.504Z,3.47
2019-05-11T07:34:13.855Z,4.53
2019-05-11T07:36:40.328Z,7.85
2019-05-11T07:39:08.353Z,3.00
2019-05-11T07:41:35.056Z,5.58
2019-05-11T07:44:01.408Z,6.42
2019-05-11T07:46:28.817Z,7.78
2019-05-11T07:48:55.448Z,5.15
2019-05-11T07:51:21.815Z,7.47
2019-05-11T07:53:48.757Z,5.92
2019-05-11T07:56:15.368Z,5.15
2019-05-11T07:58:41.732Z,7.10
2019-05-11T08:01:08.769Z,5.55
2019-05-11T08:03:35.431Z,3.15
2019-05-11T08:06:02.850Z,4.12
2019-05-11T08:08:29.462Z,7.45
2019-05-11T08:10:55.830Z,5.33
2019-05-11T08:13:22.184Z,3.90
2019-05-11T08:15:48.934Z,7.53
2019-05-11T08:18:15.615Z,5.28
2019-05-11T08:20:41.972Z,2.95
2019-05-11T08:23:09.099Z,4.62
2019-05-11T08:25:37.839Z,3.60
2019-05-11T08:28:04.087Z,3.72
2019-05-11T08:30:30.541Z,2.52
2019-05-11T08:32:58.203Z,3.05
2019-05-11T08:35:30.426Z,1.95
2019-05-11T08:37:53.399Z,2.70
2019-05-11T08:40:19.950Z,2.05
2019-05-11T08:42:48.225Z,1.92
2019-05-11T08:45:22.984Z,1.75
2019-05-11T08:47:43.146Z,3.87
2019-05-11T08:50:10.205Z,3.50
2019-05-11T08:52:38.644Z,3.35
2019-05-11T08:55:05.249Z,2.15
2019-05-11T08:57:32.559Z,2.55
2019-05-11T08:59:59.036Z,3.77
2019-05-11T09:02:27.640Z,2.37
2019-05-11T09:04:53.847Z,1.70
2019-05-11T09:07:20.419Z,2.12
2019-05-11T09:09:48.364Z,2.35
2019-05-11T09:12:14.956Z,3.30
2019-05-11T09:14:41.337Z,2.05
2019-05-11T09:17:07.949Z,3.10
2019-05-11T09:19:34.475Z,2.47
2019-05-11T09:22:03.177Z,3.37
2019-05-11T09:24:29.188Z,2.83
2019-05-11T09:26:55.555Z,1.90
2019-05-11T09:29:22.005Z,1.98
2019-05-11T09:31:48.805Z,2.30
2019-05-11T09:34:15.282Z,3.60
2019-05-11T09:36:41.719Z,4.10
2019-05-11T09:39:08.509Z,1.30
2019-05-11T09:41:35.098Z,4.05
2019-05-11T09:44:01.548Z,1.57
2019-05-11T09:46:28.078Z,2.10
2019-05-11T09:48:54.570Z,1.50
2019-05-11T09:51:20.923Z,10.28
2019-05-11T09:53:48.359Z,5.72
2019-05-11T09:56:15.060Z,3.55
2019-05-11T09:58:41.452Z,5.87
2019-05-11T10:01:08.888Z,13.78
2019-05-11T10:03:35.468Z,4.42
2019-05-11T10:06:02.019Z,3.12
2019-05-11T10:08:28.777Z,3.95
2019-05-11T10:10:57.464Z,2.92
2019-05-11T10:13:23.821Z,5.90
2019-05-11T10:16:03.614Z,6.37
2019-05-11T10:18:18.748Z,2.92
2019-05-11T10:20:45.196Z,2.22
2019-05-11T10:23:11.673Z,16.67
2019-05-11T10:25:39.058Z,5.00
2019-05-11T10:28:08.507Z,2.05
2019-05-11T10:30:34.382Z,2.77
2019-05-11T10:33:00.852Z,1.65
2019-05-11T10:35:28.716Z,7.83
2019-05-11T10:37:55.586Z,3.65
2019-05-11T10:40:22.031Z,2.95
2019-05-11T10:42:48.649Z,1.65
2019-05-11T10:45:17.826Z,1.07
2019-05-11T10:47:43.847Z,1.92
2019-05-11T10:50:10.394Z,1.60
2019-05-11T10:52:37.845Z,2.85
2019-05-11T10:55:04.520Z,1.50
2019-05-11T10:57:30.940Z,3.40
2019-05-11T10:59:57.981Z,2.17
2019-05-11T11:02:24.589Z,1.25
2019-05-11T11:04:50.934Z,1.00
2019-05-11T11:07:19.469Z,1.55
2019-05-11T11:09:45.756Z,1.95
2019-05-11T11:12:12.317Z,1.30
2019-05-11T11:14:38.785Z,2.10
2019-05-11T11:17:05.234Z,1.80
2019-05-11T11:19:31.603Z,1.25
2019-05-11T11:22:17.699Z,1.90
2019-05-11T11:24:28.524Z,3.33
2019-05-11T11:26:54.571Z,2.10
2019-05-11T11:29:21.038Z,3.15
2019-05-11T11:31:48.153Z,1.57
2019-05-11T11:34:14.689Z,1.67
2019-05-11T11:36:41.420Z,1.55
2019-05-11T11:39:08.541Z,1.57
2019-05-11T11:41:35.286Z,1.60
2019-05-11T11:44:01.660Z,1.27
2019-05-11T11:46:28.114Z,1.50
2019-05-11T11:48:54.593Z,0.75
2019-05-11T11:51:21.040Z,1.42
2019-05-11T11:53:47.953Z,1.17
2019-05-11T11:56:14.592Z,0.98
2019-05-11T11:58:41.244Z,2.95
2019-05-11T12:01:08.395Z,2.33
2019-05-11T12:03:35.067Z,0.72
2019-05-11T12:06:01.625Z,3.87
2019-05-11T12:08:28.393Z,2.20
2019-05-11T12:10:54.951Z,0.82
2019-05-11T12:13:21.322Z,0.47
2019-05-11T12:15:48.369Z,1.40
2019-05-11T12:18:14.942Z,1.87
2019-05-11T12:20:41.800Z,6.78
2019-05-11T12:23:08.765Z,0.82
2019-05-11T12:25:38.297Z,2.10
2019-05-11T12:28:03.896Z,0.68
2019-05-11T12:30:30.362Z,1.27
2019-05-11T12:32:57.728Z,1.10
2019-05-11T12:35:24.416Z,1.55
2019-05-11T12:37:50.871Z,4.50
2019-05-11T12:40:18.034Z,3.52
2019-05-11T12:42:44.595Z,0.42
2019-05-11T12:45:11.083Z,1.35
2019-05-11T12:47:38.550Z,1.32
2019-05-11T12:50:07.798Z,0.65
2019-05-11T12:52:34.152Z,0.85
2019-05-11T12:55:00.719Z,1.02
2019-05-11T12:57:28.195Z,2.85
2019-05-11T12:59:54.744Z,0.42
2019-05-11T13:02:21.199Z,1.98
2019-05-11T13:04:47.974Z,0.50
2019-05-11T13:07:16.619Z,0.50
2019-05-11T13:09:42.707Z,0.78
2019-05-11T13:12:09.260Z,0.53
2019-05-11T13:14:38.014Z,1.42
2019-05-11T13:17:04.074Z,0.70
2019-05-11T13:19:30.447Z,1.27
2019-05-11T13:21:58.743Z,0.80
2019-05-11T13:24:25.083Z,1.42
2019-05-11T13:26:51.651Z,0.53
2019-05-11T13:29:18.279Z,0.55
2019-05-11T13:31:44.909Z,1.30
2019-05-11T13:34:11.380Z,0.75
2019-05-11T13:36:38.339Z,2.20
2019-05-11T13:39:05.816Z,1.17
2019-05-11T13:41:32.360Z,2.90
2019-05-11T13:43:58.843Z,0.60
2019-05-11T13:46:25.240Z,0.60
2019-05-11T13:48:51.587Z,0.62
2019-05-11T13:51:18.425Z,0.60
2019-05-11T13:53:45.007Z,0.98
2019-05-11T13:56:11.475Z,1.65
2019-05-11T13:58:38.278Z,0.68
2019-05-11T14:01:04.963Z,0.82
2019-05-11T14:03:31.406Z,0.72
2019-05-11T14:05:58.340Z,0.55
2019-05-11T14:08:25.171Z,0.47
2019-05-11T14:10:51.652Z,1.57
2019-05-11T14:13:18.298Z,0.85
2019-05-11T14:15:44.875Z,2.40
2019-05-11T14:18:12.024Z,1.37
2019-05-11T14:20:38.688Z,1.72
2019-05-11T14:23:07.924Z,2.87
2019-05-11T14:25:34.359Z,0.57
2019-05-11T14:28:00.845Z,0.80
2019-05-11T14:30:27.609Z,0.70
2019-05-11T14:32:54.568Z,0.95
2019-05-11T14:35:21.137Z,0.75
2019-05-11T14:37:48.668Z,1.47
2019-05-11T14:40:17.660Z,1.57
2019-05-11T14:42:43.703Z,0.60
2019-05-11T14:45:10.171Z,4.30
2019-05-11T14:47:38.616Z,0.40
2019-05-11T14:50:05.207Z,1.42
2019-05-11T14:52:31.660Z,1.02
2019-05-11T14:54:58.569Z,0.40
2019-05-11T14:57:25.075Z,0.72
2019-05-11T14:59:51.443Z,2.77
2019-05-11T15:02:19.792Z,1.55
2019-05-11T15:04:48.419Z,1.40
2019-05-11T15:07:14.516Z,0.50
2019-05-11T15:09:40.899Z,0.93
2019-05-11T15:12:08.658Z,0.68
2019-05-11T15:14:35.215Z,0.42
2019-05-11T15:17:01.583Z,1.35
2019-05-11T15:19:28.009Z,0.50
2019-05-11T15:21:54.500Z,0.33
2019-05-11T15:24:20.967Z,1.17
2019-05-11T15:26:48.697Z,0.30
2019-05-11T15:29:17.967Z,0.30
2019-05-11T15:31:44.291Z,0.30
2019-05-11T15:34:10.748Z,0.20
2019-05-11T15:36:38.708Z,0.40
2019-05-11T15:39:07.715Z,0.30
2019-05-11T15:41:34.236Z,0.88
2019-05-11T15:44:00.791Z,0.17
2019-05-11T15:46:28.275Z,1.60
2019-05-11T15:49:00.567Z,0.30
2019-05-11T15:51:23.432Z,0.40
2019-05-11T15:53:50.394Z,0.50
2019-05-11T15:56:19.028Z,1.00
2019-05-11T15:58:45.204Z,1.85
2019-05-11T16:01:11.574Z,0.85
2019-05-11T16:03:38.019Z,2.22
2019-05-11T16:06:04.491Z,0.75
2019-05-11T16:08:30.939Z,0.72
2019-05-11T16:10:57.818Z,0.68
2019-05-11T16:13:24.453Z,1.22
2019-05-11T16:15:50.836Z,0.53
2019-05-11T16:18:18.961Z,0.60
2019-05-11T16:20:49.887Z,0.45
2019-05-11T16:23:14.387Z,1.47
2019-05-11T16:25:41.122Z,2.52
2019-05-11T16:28:07.821Z,1.32
2019-05-11T16:30:37.823Z,0.75
2019-05-11T16:33:04.357Z,0.78
2019-05-11T16:35:30.823Z,1.70
2019-05-11T16:37:59.222Z,0.62
2019-05-11T16:40:25.639Z,0.55
2019-05-11T16:42:52.212Z,0.53
2019-05-11T16:45:23.593Z,1.55
2019-05-11T16:47:48.871Z,0.90
2019-05-11T16:50:17.832Z,0.68
2019-05-11T16:52:43.789Z,2.92
2019-05-11T16:55:10.261Z,1.15
2019-05-11T16:57:38.182Z,2.27
2019-05-11T17:00:08.684Z,2.08
2019-05-11T17:02:34.647Z,1.35
2019-05-11T17:05:01.203Z,0.62
2019-05-11T17:07:29.822Z,0.60
2019-05-11T17:09:57.828Z,0.80
2019-05-11T17:12:24.296Z,1.22
2019-05-11T17:14:52.643Z,1.30
2019-05-11T17:17:19.032Z,1.10
2019-05-11T17:19:46.464Z,2.47
2019-05-11T17:22:13.651Z,1.77
2019-05-11T17:24:40.098Z,1.10
2019-05-11T17:27:08.895Z,0.60
2019-05-11T17:29:35.556Z,0.70
2019-05-11T17:32:01.945Z,1.10
2019-05-11T17:34:28.596Z,0.80
2019-05-11T17:36:57.159Z,2.40
2019-05-11T17:39:23.474Z,1.42
2019-05-11T17:41:50.161Z,1.00
2019-05-11T17:44:18.533Z,0.68
2019-05-11T17:46:44.917Z,2.52
2019-05-11T17:49:11.379Z,2.67
2019-05-11T17:51:38.064Z,0.95
2019-05-11T17:54:04.612Z,1.25
2019-05-11T17:56:30.967Z,1.40
2019-05-11T17:58:58.462Z,2.22
2019-05-11T18:01:25.019Z,1.05
2019-05-11T18:03:51.394Z,1.70
2019-05-11T18:06:18.425Z,1.40
2019-05-11T18:08:44.999Z,1.40
2019-05-11T18:11:11.454Z,4.57
2019-05-11T18:13:38.985Z,0.80
2019-05-11T18:16:05.571Z,1.05
2019-05-11T18:18:32.156Z,1.72
2019-05-11T18:20:58.711Z,2.13
2019-05-11T18:23:25.185Z,4.30
2019-05-11T18:25:51.540Z,3.43
2019-05-11T18:28:18.184Z,2.37
2019-05-11T18:30:44.703Z,3.00
2019-05-11T18:33:11.306Z,1.60
2019-05-11T18:35:37.656Z,1.90
2019-05-11T18:38:04.703Z,1.27
2019-05-11T18:40:31.076Z,1.60
2019-05-11T18:42:57.909Z,1.50
2019-05-11T18:45:24.527Z,3.20
2019-05-11T18:47:51.072Z,1.40
2019-05-11T18:50:29.808Z,2.00
2019-05-11T18:52:48.595Z,1.30
2019-05-11T18:55:14.880Z,1.30
2019-05-11T18:57:41.227Z,1.87
2019-05-11T19:00:08.246Z,1.50
2019-05-11T19:02:34.852Z,1.50
2019-05-11T19:05:01.519Z,2.20
2019-05-11T19:07:28.392Z,2.30
2019-05-11T19:09:54.940Z,1.40
2019-05-11T19:12:21.383Z,1.00
2019-05-11T19:14:48.024Z,1.43
2019-05-11T19:17:14.514Z,1.37
2019-05-11T19:19:40.878Z,4.07
2019-05-11T19:22:09.015Z,3.20
2019-05-11T19:24:35.644Z,1.90
2019-05-11T19:27:02.197Z,1.70
2019-05-11T19:29:28.668Z,2.17
2019-05-11T19:31:55.156Z,2.37
2019-05-11T19:34:21.627Z,1.90
2019-05-11T19:36:48.506Z,2.13
2019-05-11T19:39:15.139Z,1.97
2019-05-11T19:41:41.588Z,2.33
2019-05-11T19:44:08.577Z,1.93
2019-05-11T19:46:35.147Z,1.90
2019-05-11T19:49:01.607Z,5.20
2019-05-11T19:51:29.075Z,1.80
2019-05-11T19:53:57.594Z,1.63
2019-05-11T19:56:24.102Z,1.97
2019-05-11T19:58:50.452Z,1.63
2019-05-11T20:01:18.773Z,2.00
2019-05-11T20:03:45.476Z,1.70
2019-05-11T20:06:11.939Z,2.53
2019-05-11T20:08:38.812Z,1.90
2019-05-11T20:11:05.425Z,2.20
2019-05-11T20:13:31.861Z,2.10
2019-05-11T20:15:58.334Z,2.63
2019-05-11T20:18:24.783Z,1.40
2019-05-11T20:20:51.247Z,1.53
2019-05-11T20:23:17.696Z,1.40
2019-05-11T20:25:44.067Z,1.10
2019-05-11T20:28:10.623Z,1.17
2019-05-11T20:30:37.274Z,1.10
2019-05-11T20:33:03.729Z,1.07
2019-05-11T20:35:32.470Z,0.90
2019-05-11T20:37:58.541Z,0.83
2019-05-11T20:40:25.007Z,0.80
2019-05-11T20:42:51.356Z,0.73
2019-05-11T20:45:18.592Z,0.60
2019-05-11T20:47:45.388Z,0.80
2019-05-11T20:50:11.987Z,1.00
2019-05-11T20:52:40.048Z,1.23
2019-05-11T20:55:08.892Z,1.10
2019-05-11T20:57:34.959Z,0.90
2019-05-11T21:00:01.624Z,0.90
2019-05-11T21:02:28.888Z,1.13
2019-05-11T21:04:58.240Z,1.00
2019-05-11T21:07:23.896Z,1.30
2019-05-11T21:09:50.264Z,0.73
2019-05-11T21:12:18.471Z,0.80
2019-05-11T21:14:45.082Z,0.80
2019-05-11T21:17:11.751Z,0.80
2019-05-11T21:19:39.037Z,0.90
2019-05-11T21:22:08.822Z,1.17
2019-05-11T21:24:35.063Z,1.17
2019-05-11T21:27:01.527Z,0.90
2019-05-11T21:29:31.222Z,1.27
2019-05-11T21:31:58.709Z,3.13
2019-05-11T21:34:24.939Z,1.40
2019-05-11T21:36:51.304Z,1.00
2019-05-11T21:39:17.752Z,1.20
2019-05-11T21:41:44.326Z,1.60
2019-05-11T21:44:10.779Z,1.40
2019-05-11T21:46:38.761Z,1.60
2019-05-11T21:49:07.685Z,1.50
2019-05-11T21:51:33.890Z,1.70
2019-05-11T21:54:00.339Z,4.03
2019-05-11T21:56:28.780Z,1.60
2019-05-11T21:58:55.160Z,1.70
2019-05-11T22:01:21.734Z,2.07
2019-05-11T22:03:48.303Z,2.13
2019-05-11T22:06:14.679Z,1.70
2019-05-11T22:08:41.123Z,1.50
2019-05-11T22:11:08.688Z,1.70
2019-05-11T22:13:35.243Z,2.03
2019-05-11T22:16:04.767Z,1.83
2019-05-11T22:18:31.565Z,1.70
2019-05-11T22:20:58.170Z,1.73
2019-05-11T22:23:24.826Z,1.60
2019-05-11T22:25:51.224Z,2.07
2019-05-11T22:28:17.776Z,1.90
2019-05-11T22:30:44.308Z,1.70
2019-05-11T22:33:10.864Z,1.53
2019-05-11T22:35:39.766Z,1.63
2019-05-11T22:38:08.369Z,1.77
2019-05-11T22:40:34.963Z,2.20
2019-05-11T22:43:01.431Z,1.60
2019-05-11T22:45:27.917Z,2.07
2019-05-11T22:47:54.454Z,1.90
2019-05-11T22:50:20.800Z,1.60
2019-05-11T22:52:48.381Z,2.10
2019-05-11T22:55:15.239Z,2.30
2019-05-11T22:57:41.811Z,1.90
2019-05-11T23:00:08.768Z,1.67
2019-05-11T23:02:37.461Z,2.33
2019-05-11T23:05:04.661Z,1.70
2019-05-11T23:07:31.243Z,2.20
2019-05-11T23:10:00.471Z,2.10
2019-05-11T23:12:28.473Z,2.27
2019-05-11T23:14:58.146Z,1.97
2019-05-11T23:17:24.935Z,1.70
2019-05-11T23:19:51.415Z,3.53
2019-05-11T23:22:18.297Z,2.10
2019-05-11T23:24:44.804Z,4.23
2019-05-11T23:27:11.195Z,1.90
2019-05-11T23:29:38.406Z,2.60
2019-05-11T23:32:05.176Z,1.83
2019-05-11T23:34:31.627Z,1.83
2019-05-11T23:36:59.157Z,1.57
2019-05-11T23:39:28.114Z,2.07
2019-05-11T23:41:54.016Z,1.60
2019-05-11T23:44:20.379Z,2.43
2019-05-11T23:46:47.873Z,2.10
2019-05-11T23:49:14.374Z,3.53
2019-05-11T23:51:40.818Z,1.37
2019-05-11T23:54:08.028Z,1.97
2019-05-11T23:56:34.563Z,2.40
2019-05-11T23:59:00.926Z,4.30
